createdAt,value
2019-04-30T00:01:33.563Z,74.04
2019-04-30T00:04:05.629Z,72.90
2019-04-30T00:06:39.313Z,73.40
2019-04-30T00:09:09.817Z,73.57
2019-04-30T00:11:37.407Z,73.76
2019-04-30T00:14:05.775Z,74.28
2019-04-30T00:16:36.339Z,74.06
2019-04-30T00:19:06.170Z,72.96
2019-04-30T00:21:36.102Z,73.46
2019-04-30T00:24:06.218Z,74.01
2019-04-30T00:26:35.441Z,73.84
2019-04-30T00:29:05.146Z,73.68
2019-04-30T00:31:34.927Z,74.32
2019-04-30T00:34:05.039Z,74.77
2019-04-30T00:36:34.304Z,75.38
2019-04-30T00:39:07.184Z,75.59
2019-04-30T00:41:39.936Z,75.16
2019-04-30T00:44:07.156Z,75.46
2019-04-30T00:46:36.393Z,75.74
2019-04-30T00:49:09.823Z,75.75
2019-04-30T00:51:35.564Z,75.98
2019-04-30T00:54:05.663Z,75.90
2019-04-30T00:56:35.537Z,76.03
2019-04-30T00:59:07.029Z,76.03
2019-04-30T01:01:43.494Z,75.37
2019-04-30T01:04:15.090Z,75.32
2019-04-30T01:06:46.259Z,75.41
2019-04-30T01:09:15.582Z,76.28
2019-04-30T01:11:47.912Z,76.28
2019-04-30T01:14:14.164Z,76.55
2019-04-30T01:16:42.606Z,76.26
2019-04-30T01:19:26.591Z,75.58
2019-04-30T01:21:46.920Z,75.80
2019-04-30T01:24:12.587Z,75.97
2019-04-30T01:26:41.063Z,76.46
2019-04-30T01:29:10.255Z,75.93
2019-04-30T01:31:40.811Z,76.10
2019-04-30T01:34:13.792Z,75.11
2019-04-30T01:36:43.437Z,75.11
2019-04-30T01:39:12.983Z,75.69
2019-04-30T01:41:41.641Z,76.37
2019-04-30T01:44:11.900Z,76.52
2019-04-30T01:46:43.250Z,76.81
2019-04-30T01:49:10.323Z,76.99
2019-04-30T01:51:38.839Z,77.10
2019-04-30T01:54:09.260Z,77.08
2019-04-30T01:56:49.883Z,77.08
2019-04-30T01:59:19.971Z,77.03
2019-04-30T02:01:50.063Z,77.17
2019-04-30T02:04:19.576Z,77.61
2019-04-30T02:06:49.433Z,77.61
2019-04-30T02:09:18.834Z,77.66
2019-04-30T02:11:48.829Z,77.55
2019-04-30T02:14:18.912Z,77.55
2019-04-30T02:16:49.315Z,77.65
2019-04-30T02:19:18.856Z,77.64
2019-04-30T02:21:48.786Z,77.34
2019-04-30T02:24:19.210Z,77.14
2019-04-30T02:26:48.506Z,76.85
2019-04-30T02:29:19.002Z,76.84
2019-04-30T02:31:47.262Z,77.11
2019-04-30T02:34:21.714Z,77.44
2019-04-30T02:36:52.136Z,77.36
2019-04-30T02:39:21.481Z,77.78
2019-04-30T02:41:50.872Z,77.78
2019-04-30T02:44:20.624Z,77.38
2019-04-30T02:46:52.941Z,77.54
2019-04-30T02:49:25.801Z,77.39
2019-04-30T02:51:59.390Z,77.36
2019-04-30T02:54:30.276Z,77.07
2019-04-30T02:57:00.377Z,77.15
2019-04-30T02:59:30.096Z,77.32
2019-04-30T03:01:59.741Z,77.48
2019-04-30T03:04:29.372Z,77.54
2019-04-30T03:06:59.779Z,77.36
2019-04-30T03:09:29.713Z,77.66
2019-04-30T03:12:00.299Z,77.51
2019-04-30T03:14:30.123Z,77.59
2019-04-30T03:17:10.580Z,77.20
2019-04-30T03:19:40.621Z,76.47
2019-04-30T03:22:20.124Z,77.09
2019-04-30T03:24:50.160Z,77.33
2019-04-30T03:27:20.472Z,77.44
2019-04-30T03:29:50.280Z,77.21
2019-04-30T03:32:22.406Z,76.98
2019-04-30T03:34:52.215Z,77.27
2019-04-30T03:37:23.425Z,76.78
2019-04-30T03:39:51.837Z,76.54
2019-04-30T03:42:20.278Z,76.36
2019-04-30T03:44:49.558Z,76.43
2019-04-30T03:47:20.251Z,76.29
2019-04-30T03:49:49.854Z,76.59
2019-04-30T03:52:19.680Z,76.85
2019-04-30T03:54:52.137Z,76.81
2019-04-30T03:57:20.787Z,77.40
2019-04-30T03:59:49.981Z,77.54
2019-04-30T04:02:30.065Z,77.56
2019-04-30T04:05:01.147Z,77.40
2019-04-30T04:07:52.564Z,77.53
2019-04-30T04:10:35.802Z,77.41
2019-04-30T04:13:04.188Z,77.54
2019-04-30T04:15:32.632Z,77.72
2019-04-30T04:18:01.086Z,77.47
2019-04-30T04:20:29.963Z,77.25
2019-04-30T04:22:59.860Z,77.18
2019-04-30T04:25:29.969Z,76.92
2019-04-30T04:28:00.333Z,77.00
2019-04-30T04:30:30.053Z,76.62
2019-04-30T04:32:59.962Z,76.65
2019-04-30T04:35:29.831Z,76.67
2019-04-30T04:38:00.383Z,76.51
2019-04-30T04:40:30.215Z,76.33
2019-04-30T04:43:00.279Z,76.13
2019-04-30T04:45:30.486Z,76.24
2019-04-30T04:48:00.065Z,75.65
2019-04-30T04:50:31.588Z,75.65
2019-04-30T04:52:59.996Z,75.30
2019-04-30T04:55:30.818Z,75.53
2019-04-30T04:57:59.874Z,75.15
2019-04-30T05:00:32.665Z,75.46
2019-04-30T05:03:05.145Z,74.95
2019-04-30T05:05:32.806Z,74.44
2019-04-30T05:08:01.170Z,73.46
2019-04-30T05:10:29.606Z,72.74
2019-04-30T05:12:59.238Z,71.52
2019-04-30T05:15:29.481Z,70.32
2019-04-30T05:17:59.193Z,69.35
2019-04-30T05:20:29.191Z,69.22
2019-04-30T05:22:58.526Z,69.78
2019-04-30T05:25:27.037Z,69.68
2019-04-30T05:27:55.519Z,70.19
2019-04-30T05:30:23.918Z,69.33
2019-04-30T05:32:52.365Z,69.65
2019-04-30T05:35:20.868Z,69.73
2019-04-30T05:37:49.591Z,69.70
2019-04-30T05:40:18.876Z,69.29
2019-04-30T05:42:49.453Z,68.42
2019-04-30T05:45:19.245Z,67.90
2019-04-30T05:47:50.227Z,69.04
2019-04-30T05:50:19.802Z,68.36
2019-04-30T05:52:49.426Z,66.96
2019-04-30T05:55:19.727Z,65.47
2019-04-30T05:57:56.077Z,63.24
2019-04-30T06:00:19.708Z,62.34
2019-04-30T06:02:49.713Z,63.54
2019-04-30T06:05:18.887Z,61.73
2019-04-30T06:07:51.678Z,60.87
2019-04-30T06:10:19.680Z,59.17
2019-04-30T06:12:52.429Z,58.33
2019-04-30T06:15:25.392Z,55.49
2019-04-30T06:18:00.351Z,52.60
2019-04-30T06:20:24.723Z,50.78
2019-04-30T06:22:53.458Z,50.92
2019-04-30T06:25:31.537Z,50.27
2019-04-30T06:27:56.306Z,49.77
2019-04-30T06:30:25.738Z,48.42
2019-04-30T06:32:54.994Z,49.93
2019-04-30T06:35:24.066Z,50.42
2019-04-30T06:37:52.476Z,52.72
2019-04-30T06:40:21.070Z,53.23
2019-04-30T06:42:49.705Z,52.88
2019-04-30T06:45:19.127Z,51.81
2019-04-30T06:47:49.023Z,49.96
2019-04-30T06:50:19.372Z,47.67
2019-04-30T06:52:56.794Z,46.77
2019-04-30T06:55:21.870Z,46.12
2019-04-30T06:57:50.358Z,45.40
2019-04-30T07:00:20.667Z,46.08
2019-04-30T07:02:49.522Z,42.69
2019-04-30T07:05:18.598Z,42.88
2019-04-30T07:08:09.212Z,42.99
2019-04-30T07:10:37.441Z,41.99
2019-04-30T07:13:08.793Z,39.96
2019-04-30T07:15:38.995Z,39.08
2019-04-30T07:18:09.071Z,37.57
2019-04-30T07:20:38.748Z,35.79
2019-04-30T07:23:09.186Z,36.56
2019-04-30T07:25:39.055Z,35.38
2019-04-30T07:28:09.046Z,32.89
2019-04-30T07:30:39.479Z,32.94
2019-04-30T07:33:09.523Z,33.35
2019-04-30T07:35:39.853Z,34.01
2019-04-30T07:38:09.361Z,34.21
2019-04-30T07:40:39.057Z,34.94
2019-04-30T07:43:09.160Z,34.05
2019-04-30T07:45:39.231Z,32.65
2019-04-30T07:48:09.267Z,31.21
2019-04-30T07:50:40.480Z,32.11
2019-04-30T07:53:11.316Z,31.15
2019-04-30T07:55:39.337Z,33.79
2019-04-30T07:58:09.019Z,34.88
2019-04-30T08:00:40.341Z,36.34
2019-04-30T08:03:10.741Z,37.47
2019-04-30T08:05:41.238Z,38.85
2019-04-30T08:08:20.826Z,37.52
2019-04-30T08:10:39.791Z,37.39
2019-04-30T08:13:13.643Z,36.05
2019-04-30T08:15:42.161Z,36.40
2019-04-30T08:18:08.750Z,36.15
2019-04-30T08:20:39.213Z,34.19
2019-04-30T08:23:20.338Z,35.31
2019-04-30T08:25:39.075Z,35.44
2019-04-30T08:28:09.110Z,36.74
2019-04-30T08:30:39.143Z,38.03
2019-04-30T08:33:09.444Z,40.06
2019-04-30T08:35:39.768Z,43.08
2019-04-30T08:38:10.587Z,42.08
2019-04-30T08:40:47.253Z,42.08
2019-04-30T08:43:09.515Z,42.21
2019-04-30T08:45:38.543Z,41.55
2019-04-30T08:48:09.039Z,40.75
2019-04-30T08:50:39.302Z,44.48
2019-04-30T08:53:10.390Z,46.10
2019-04-30T08:55:39.148Z,44.91
2019-04-30T08:58:12.431Z,43.60
2019-04-30T09:00:38.577Z,46.88
2019-04-30T09:03:09.362Z,45.59
2019-04-30T09:05:39.500Z,47.26
2019-04-30T09:08:09.672Z,47.91
2019-04-30T09:10:39.331Z,46.47
2019-04-30T09:13:09.158Z,44.34
2019-04-30T09:15:37.629Z,45.45
2019-04-30T09:18:10.252Z,42.70
2019-04-30T09:20:36.210Z,43.19
2019-04-30T09:23:04.695Z,44.81
2019-04-30T09:25:33.104Z,42.40
2019-04-30T09:28:04.293Z,46.05
2019-04-30T09:30:31.714Z,45.37
2019-04-30T09:33:03.524Z,44.58
2019-04-30T09:35:32.295Z,42.76
2019-04-30T09:38:01.992Z,42.98
2019-04-30T09:40:32.493Z,43.29
2019-04-30T09:43:00.723Z,43.78
2019-04-30T09:45:29.133Z,44.46
2019-04-30T09:47:59.244Z,44.16
2019-04-30T09:50:28.955Z,44.48
2019-04-30T09:52:59.836Z,44.73
2019-04-30T09:55:29.029Z,43.06
2019-04-30T09:57:58.900Z,42.07
2019-04-30T10:00:29.311Z,43.82
2019-04-30T10:02:59.905Z,41.70
2019-04-30T10:05:29.209Z,42.31
2019-04-30T10:07:59.418Z,40.31
2019-04-30T10:10:29.578Z,40.69
2019-04-30T10:12:59.363Z,42.78
2019-04-30T10:15:35.215Z,40.32
2019-04-30T10:18:03.759Z,41.94
2019-04-30T10:20:41.785Z,41.92
2019-04-30T10:23:12.902Z,44.01
2019-04-30T10:25:41.327Z,40.91
2019-04-30T10:28:14.052Z,45.16
2019-04-30T10:30:42.511Z,42.31
2019-04-30T10:33:10.918Z,44.92
2019-04-30T10:35:41.422Z,42.53
2019-04-30T10:38:10.013Z,41.76
2019-04-30T10:40:39.691Z,42.07
2019-04-30T10:43:08.860Z,42.10
2019-04-30T10:45:38.806Z,41.67
2019-04-30T10:48:07.509Z,41.29
2019-04-30T10:50:35.926Z,40.04
2019-04-30T10:53:04.395Z,40.22
2019-04-30T10:55:32.821Z,39.70
2019-04-30T10:58:01.224Z,40.86
2019-04-30T11:00:41.986Z,41.11
2019-04-30T11:03:19.123Z,41.73
2019-04-30T11:05:41.432Z,41.36
2019-04-30T11:08:10.001Z,39.37
2019-04-30T11:10:39.902Z,38.50
2019-04-30T11:13:12.424Z,42.62
2019-04-30T11:15:41.100Z,42.93
2019-04-30T11:18:09.754Z,40.68
2019-04-30T11:20:39.724Z,39.52
2019-04-30T11:23:14.695Z,40.66
2019-04-30T11:25:41.199Z,40.47
2019-04-30T11:28:09.404Z,41.01
2019-04-30T11:30:39.207Z,39.30
2019-04-30T11:33:08.213Z,40.60
2019-04-30T11:35:36.853Z,36.89
2019-04-30T11:38:05.516Z,37.90
2019-04-30T11:40:37.416Z,40.72
2019-04-30T11:43:04.307Z,39.41
2019-04-30T11:45:53.883Z,37.85
2019-04-30T11:48:22.347Z,38.20
2019-04-30T11:50:50.845Z,39.20
2019-04-30T11:53:25.383Z,36.77
2019-04-30T11:55:49.639Z,40.43
2019-04-30T11:58:21.754Z,39.23
2019-04-30T12:00:49.474Z,38.04
2019-04-30T12:03:19.128Z,38.59
2019-04-30T12:05:50.238Z,35.77
2019-04-30T12:08:39.329Z,39.80
2019-04-30T12:11:09.365Z,37.52
2019-04-30T12:13:37.770Z,36.47
2019-04-30T12:16:06.318Z,34.26
2019-04-30T12:18:38.377Z,39.50
2019-04-30T12:21:09.210Z,37.10
2019-04-30T12:23:37.621Z,39.53
2019-04-30T12:26:06.050Z,38.18
2019-04-30T12:28:34.466Z,35.66
2019-04-30T12:31:05.605Z,34.41
2019-04-30T12:33:33.019Z,37.10
2019-04-30T12:36:01.647Z,36.99
2019-04-30T12:38:32.741Z,36.94
2019-04-30T12:41:01.198Z,34.36
2019-04-30T12:43:29.605Z,31.68
2019-04-30T12:46:04.895Z,34.00
2019-04-30T12:48:39.641Z,34.42
2019-04-30T12:51:09.896Z,39.49
2019-04-30T12:53:55.060Z,32.31
2019-04-30T12:56:27.143Z,33.21
2019-04-30T12:58:55.400Z,33.94
2019-04-30T13:01:31.781Z,33.86
2019-04-30T13:04:01.449Z,34.68
2019-04-30T13:06:30.109Z,33.54
2019-04-30T13:09:03.074Z,35.52
2019-04-30T13:11:36.552Z,34.23
2019-04-30T13:14:06.280Z,35.14
2019-04-30T13:16:35.146Z,33.49
2019-04-30T13:19:03.622Z,35.05
2019-04-30T13:21:32.033Z,36.41
2019-04-30T13:24:00.457Z,34.73
2019-04-30T13:26:28.878Z,35.50
2019-04-30T13:28:58.939Z,33.34
2019-04-30T13:31:29.410Z,33.83
2019-04-30T13:34:03.102Z,35.62
2019-04-30T13:36:31.563Z,32.83
2019-04-30T13:39:02.695Z,35.38
2019-04-30T13:41:43.044Z,35.11
2019-04-30T13:44:12.642Z,35.13
2019-04-30T13:46:42.161Z,32.55
2019-04-30T13:49:10.574Z,35.97
2019-04-30T13:51:38.998Z,34.69
2019-04-30T13:54:11.275Z,32.20
2019-04-30T13:56:39.833Z,36.25
2019-04-30T13:59:08.279Z,34.85
2019-04-30T14:01:38.946Z,34.95
2019-04-30T14:04:18.111Z,32.17
2019-04-30T14:07:08.561Z,33.15
2019-04-30T14:09:36.983Z,34.61
2019-04-30T14:12:05.633Z,34.76
2019-04-30T14:14:34.064Z,32.88
2019-04-30T14:17:03.889Z,34.06
2019-04-30T14:19:32.367Z,37.60
2019-04-30T14:22:00.803Z,35.67
2019-04-30T14:24:29.198Z,37.51
2019-04-30T14:27:01.324Z,37.06
2019-04-30T14:29:30.208Z,36.17
2019-04-30T14:31:59.607Z,36.24
2019-04-30T14:34:28.709Z,40.15
2019-04-30T14:36:59.180Z,34.61
2019-04-30T14:39:29.237Z,34.43
2019-04-30T14:42:02.287Z,36.64
2019-04-30T14:44:33.521Z,37.48
2019-04-30T14:47:11.909Z,35.20
2019-04-30T14:49:41.501Z,36.82
2019-04-30T14:52:11.227Z,35.89
2019-04-30T14:54:41.364Z,37.07
2019-04-30T14:57:13.193Z,36.15
2019-04-30T14:59:49.513Z,36.83
2019-04-30T15:02:34.944Z,37.76
2019-04-30T15:05:04.538Z,37.41
2019-04-30T15:07:34.038Z,39.15
2019-04-30T15:10:02.707Z,38.04
2019-04-30T15:12:31.111Z,36.43
2019-04-30T15:14:59.521Z,39.34
2019-04-30T15:17:27.962Z,38.91
2019-04-30T15:19:58.786Z,38.40
2019-04-30T15:22:29.094Z,36.35
2019-04-30T15:25:00.403Z,37.81
2019-04-30T15:27:29.027Z,34.19
2019-04-30T15:29:57.572Z,37.31
2019-04-30T15:32:26.030Z,45.78
2019-04-30T15:34:55.507Z,48.52
2019-04-30T15:37:24.144Z,47.12
2019-04-30T15:39:52.566Z,47.26
2019-04-30T15:42:23.783Z,48.88
2019-04-30T15:44:52.218Z,49.93
2019-04-30T15:47:22.461Z,49.03
2019-04-30T15:49:50.925Z,49.33
2019-04-30T15:52:22.881Z,50.21
2019-04-30T15:54:51.355Z,49.76
2019-04-30T15:57:23.453Z,49.40
2019-04-30T15:59:51.927Z,50.70
2019-04-30T16:02:29.079Z,49.24
2019-04-30T16:05:17.615Z,49.44
2019-04-30T16:07:49.218Z,49.21
2019-04-30T16:10:23.606Z,47.84
2019-04-30T16:12:53.654Z,46.38
2019-04-30T16:15:22.103Z,46.23
2019-04-30T16:17:52.168Z,46.44
2019-04-30T16:20:24.203Z,47.15
2019-04-30T16:22:52.735Z,45.03
2019-04-30T16:25:21.175Z,45.23
2019-04-30T16:27:49.619Z,46.90
2019-04-30T16:30:19.544Z,45.36
2019-04-30T16:32:50.485Z,45.67
2019-04-30T16:35:21.017Z,44.99
2019-04-30T16:37:49.703Z,46.32
2019-04-30T16:40:19.009Z,49.09
2019-04-30T16:42:48.983Z,50.87
2019-04-30T16:45:19.452Z,51.59
2019-04-30T16:47:48.066Z,51.65
2019-04-30T16:50:18.703Z,51.58
2019-04-30T16:52:46.968Z,52.63
2019-04-30T16:55:15.484Z,52.65
2019-04-30T16:57:43.898Z,52.16
2019-04-30T17:00:15.486Z,51.22
2019-04-30T17:02:46.534Z,52.54
2019-04-30T17:05:23.137Z,52.33
2019-04-30T17:08:05.194Z,53.40
2019-04-30T17:10:39.385Z,52.93
2019-04-30T17:13:25.768Z,53.32
2019-04-30T17:15:55.825Z,53.24
2019-04-30T17:18:24.230Z,53.50
2019-04-30T17:20:55.128Z,54.23
2019-04-30T17:23:23.609Z,52.65
2019-04-30T17:25:52.042Z,53.22
2019-04-30T17:28:20.456Z,52.41
2019-04-30T17:30:51.408Z,52.95
2019-04-30T17:33:19.817Z,53.47
2019-04-30T17:35:49.880Z,52.91
2019-04-30T17:38:18.452Z,53.54
2019-04-30T17:40:49.478Z,50.46
2019-04-30T17:43:17.012Z,51.69
2019-04-30T17:45:45.435Z,52.37
2019-04-30T17:48:13.875Z,52.17
2019-04-30T17:50:42.305Z,52.77
2019-04-30T17:53:10.704Z,51.99
2019-04-30T17:55:39.266Z,51.91
2019-04-30T17:58:09.567Z,50.41
2019-04-30T18:00:39.632Z,50.82
2019-04-30T18:03:08.864Z,52.27
2019-04-30T18:05:39.130Z,52.94
2019-04-30T18:08:07.910Z,55.62
2019-04-30T18:10:43.399Z,57.72
2019-04-30T18:13:11.892Z,60.13
2019-04-30T18:15:42.776Z,61.88
2019-04-30T18:18:18.672Z,61.94
2019-04-30T18:20:50.067Z,62.02
2019-04-30T18:23:36.101Z,62.76
2019-04-30T18:26:08.833Z,63.73
2019-04-30T18:28:37.237Z,63.86
2019-04-30T18:31:08.855Z,64.21
2019-04-30T18:33:40.330Z,64.55
2019-04-30T18:36:09.590Z,65.43
2019-04-30T18:38:39.197Z,65.82
2019-04-30T18:41:09.470Z,65.60
2019-04-30T18:43:40.351Z,65.93
2019-04-30T18:46:10.604Z,66.25
2019-04-30T18:48:39.352Z,66.78
2019-04-30T18:51:23.732Z,67.88
2019-04-30T18:53:39.732Z,68.21
2019-04-30T18:56:13.928Z,68.06
2019-04-30T18:58:56.013Z,68.17
2019-04-30T19:01:43.040Z,67.97
2019-04-30T19:04:02.031Z,68.74
2019-04-30T19:06:45.358Z,69.21
2019-04-30T19:09:16.078Z,69.59
2019-04-30T19:11:51.202Z,69.10
2019-04-30T19:14:21.255Z,69.47
2019-04-30T19:17:02.530Z,70.07
2019-04-30T19:19:49.235Z,70.28
2019-04-30T19:22:18.704Z,70.00
2019-04-30T19:24:56.125Z,70.01
2019-04-30T19:27:24.819Z,70.93
2019-04-30T19:29:53.768Z,70.76
2019-04-30T19:32:24.496Z,70.62
2019-04-30T19:34:53.087Z,70.93
2019-04-30T19:37:21.778Z,71.59
2019-04-30T19:39:51.113Z,71.29
2019-04-30T19:42:22.028Z,71.21
2019-04-30T19:44:58.982Z,71.41
2019-04-30T19:47:30.689Z,71.47
2019-04-30T19:50:14.112Z,72.00
2019-04-30T19:52:44.073Z,71.88
2019-04-30T19:55:15.392Z,72.41
2019-04-30T19:57:48.378Z,72.35
2019-04-30T20:00:17.298Z,73.48
2019-04-30T20:02:46.230Z,72.59
2019-04-30T20:05:14.717Z,73.83
2019-04-30T20:07:44.702Z,73.82
2019-04-30T20:10:13.452Z,73.43
2019-04-30T20:12:42.089Z,73.51
2019-04-30T20:15:19.353Z,73.72
2019-04-30T20:17:41.130Z,73.56
2019-04-30T20:20:09.902Z,74.33
2019-04-30T20:22:38.927Z,74.19
2019-04-30T20:25:12.071Z,74.34
2019-04-30T20:27:39.776Z,74.95
2019-04-30T20:30:14.983Z,74.88
2019-04-30T20:32:42.720Z,74.84
2019-04-30T20:35:11.249Z,74.63
2019-04-30T20:37:59.460Z,74.92
2019-04-30T20:40:42.646Z,74.93
2019-04-30T20:43:57.752Z,74.69
2019-04-30T20:46:34.817Z,74.55
2019-04-30T20:48:59.639Z,74.32
2019-04-30T20:51:29.104Z,74.72
2019-04-30T20:53:59.203Z,75.20
2019-04-30T20:56:29.143Z,74.87
2019-04-30T20:59:02.355Z,74.54
2019-04-30T21:01:29.381Z,75.02
2019-04-30T21:03:58.057Z,74.73
2019-04-30T21:06:26.451Z,74.95
2019-04-30T21:08:54.927Z,75.16
2019-04-30T21:11:23.443Z,74.82
2019-04-30T21:13:51.859Z,75.81
2019-04-30T21:16:20.281Z,75.56
2019-04-30T21:18:52.541Z,75.36
2019-04-30T21:21:22.042Z,75.82
2019-04-30T21:23:50.495Z,76.53
2019-04-30T21:26:19.633Z,75.92
2019-04-30T21:28:49.459Z,76.16
2019-04-30T21:31:37.415Z,75.79
2019-04-30T21:34:13.464Z,75.92
2019-04-30T21:36:41.886Z,75.88
2019-04-30T21:39:10.921Z,76.07
2019-04-30T21:41:39.607Z,76.36
2019-04-30T21:44:08.131Z,75.96
2019-04-30T21:46:40.374Z,76.12
2019-04-30T21:49:08.974Z,76.09
2019-04-30T21:51:39.971Z,76.38
2019-04-30T21:54:07.711Z,76.48
2019-04-30T21:56:36.839Z,75.97
2019-04-30T21:59:07.988Z,75.70
2019-04-30T22:01:35.627Z,75.31
2019-04-30T22:04:04.294Z,75.12
2019-04-30T22:06:32.726Z,75.48
2019-04-30T22:09:02.631Z,74.81
2019-04-30T22:11:31.041Z,75.18
2019-04-30T22:14:09.919Z,74.98
2019-04-30T22:16:40.858Z,76.17
2019-04-30T22:19:09.444Z,75.84
2019-04-30T22:21:39.594Z,76.29
2019-04-30T22:24:08.170Z,75.72
2019-04-30T22:26:38.033Z,75.44
2019-04-30T22:29:06.480Z,75.40
2019-04-30T22:31:34.944Z,75.32
2019-04-30T22:34:06.081Z,75.67
2019-04-30T22:36:36.176Z,76.04
2019-04-30T22:39:24.865Z,75.56
2019-04-30T22:42:01.417Z,76.15
2019-04-30T22:44:29.899Z,76.12
2019-04-30T22:47:00.261Z,76.36
2019-04-30T22:49:28.441Z,76.77
2019-04-30T22:51:56.918Z,76.58
2019-04-30T22:54:25.400Z,76.11
2019-04-30T22:56:53.840Z,76.51
2019-04-30T22:59:22.720Z,76.56
2019-04-30T23:02:01.581Z,76.53
2019-04-30T23:04:31.638Z,76.37
2019-04-30T23:07:00.056Z,75.44
2019-04-30T23:09:28.692Z,75.79
2019-04-30T23:11:57.124Z,75.84
2019-04-30T23:14:25.568Z,76.01
2019-04-30T23:16:53.977Z,75.82
2019-04-30T23:19:23.682Z,75.25
2019-04-30T23:21:52.110Z,75.86
2019-04-30T23:24:20.549Z,75.42
2019-04-30T23:26:48.986Z,75.12
2019-04-30T23:29:17.475Z,75.59
2019-04-30T23:31:48.356Z,75.53
2019-04-30T23:34:18.308Z,75.16
2019-04-30T23:36:47.484Z,75.73
2019-04-30T23:39:16.052Z,75.76
2019-04-30T23:41:44.466Z,74.93
2019-04-30T23:44:13.523Z,75.06
2019-04-30T23:46:41.973Z,74.66
2019-04-30T23:49:10.429Z,75.42
2019-04-30T23:51:38.948Z,74.92
2019-04-30T23:54:07.378Z,74.52
2019-04-30T23:56:35.792Z,74.89
2019-04-30T23:59:04.298Z,74.33
